OHFUK LPMA-LPPS
Flight info
| Callsign | OHFUK |
|---|---|
| Flight time | N/A |
| Altitude | 4000 |
| Route | MARCU |
| Aircraft | PC12/L-SDE3FGHIRWY/S |
Departure
| Time | 2026-05-05 18:03 |
|---|---|
| Airport | Cristiano Ronaldo International Airport (LPMA) |
Arrival
| Time | N/A |
|---|---|
| Airport | Porto Santo Airport (LPPS) |
| Time | Latitude | Longitude | Altitude | Speed | Heading |
|---|---|---|---|---|---|
| 2026-05-05 17:32 | 32.69229 | -16.77822 | 165 ft | 0 kts | 138° |
| 2026-05-05 17:55 | 32.69226 | -16.77820 | 165 ft | 1 kts | 169° |
| 2026-05-05 17:55 | 32.69220 | -16.77827 | 165 ft | 1 kts | 282° |
| 2026-05-05 17:56 | 32.69230 | -16.77833 | 165 ft | 4 kts | 345° |
| 2026-05-05 17:56 | 32.69271 | -16.77866 | 165 ft | 7 kts | 315° |
| 2026-05-05 17:56 | 32.69286 | -16.77883 | 165 ft | 0 kts | 302° |
| 2026-05-05 17:59 | 32.69288 | -16.77921 | 165 ft | 11 kts | 269° |
| 2026-05-05 17:59 | 32.69280 | -16.78036 | 165 ft | 16 kts | 236° |
| 2026-05-05 17:59 | 32.69201 | -16.78132 | 161 ft | 18 kts | 225° |
| 2026-05-05 17:59 | 32.69083 | -16.78267 | 155 ft | 28 kts | 223° |
| 2026-05-05 18:00 | 32.69025 | -16.78337 | 151 ft | 10 kts | 225° |
| 2026-05-05 18:00 | 32.68942 | -16.78398 | 150 ft | 11 kts | 193° |
| 2026-05-05 18:00 | 32.68881 | -16.78436 | 150 ft | 10 kts | 257° |
| 2026-05-05 18:00 | 32.68909 | -16.78476 | 150 ft | 5 kts | 9° |
| 2026-05-05 18:01 | 32.68918 | -16.78469 | 150 ft | 0 kts | 51° |
| 2026-05-05 18:01 | 32.68934 | -16.78444 | 150 ft | 0 kts | 44° |
| 2026-05-05 18:02 | 32.68935 | -16.78443 | 150 ft | 1 kts | 43° |
| 2026-05-05 18:02 | 32.68958 | -16.78416 | 150 ft | 20 kts | 43° |
| 2026-05-05 18:03 | 32.69185 | -16.78152 | 161 ft | 69 kts | 45° |
| 2026-05-05 18:03 | 32.69578 | -16.77670 | 319 ft | 88 kts | 46° |
| 2026-05-05 18:03 | 32.69954 | -16.77068 | 699 ft | 98 kts | 65° |
| 2026-05-05 18:03 | 32.69809 | -16.76136 | 949 ft | 126 kts | 104° |
| 2026-05-05 18:04 | 32.69554 | -16.75148 | 1271 ft | 128 kts | 102° |
| 2026-05-05 18:04 | 32.69309 | -16.74123 | 1573 ft | 130 kts | 103° |
| 2026-05-05 18:04 | 32.69069 | -16.73089 | 1884 ft | 130 kts | 101° |
| 2026-05-05 18:04 | 32.68833 | -16.72057 | 2183 ft | 129 kts | 101° |
| 2026-05-05 18:05 | 32.68602 | -16.71041 | 2478 ft | 126 kts | 100° |
| 2026-05-05 18:05 | 32.68374 | -16.70045 | 2785 ft | 124 kts | 101° |
| 2026-05-05 18:05 | 32.68151 | -16.69066 | 3080 ft | 122 kts | 103° |
| 2026-05-05 18:05 | 32.67931 | -16.68102 | 3380 ft | 119 kts | 102° |
| 2026-05-05 18:06 | 32.67718 | -16.67167 | 3670 ft | 116 kts | 102° |
| 2026-05-05 18:06 | 32.67647 | -16.66856 | 3769 ft | 114 kts | 102° |
| 2026-05-05 18:06 | 32.67287 | -16.65272 | 4006 ft | 135 kts | 103° |
| 2026-05-05 18:06 | 32.67017 | -16.64102 | 4008 ft | 157 kts | 104° |
| 2026-05-05 18:07 | 32.67149 | -16.62824 | 4004 ft | 167 kts | 57° |
| 2026-05-05 18:07 | 32.67912 | -16.61708 | 4010 ft | 180 kts | 51° |
| 2026-05-05 18:07 | 32.68722 | -16.60508 | 4002 ft | 191 kts | 53° |
| 2026-05-05 18:07 | 32.69527 | -16.59221 | 4003 ft | 196 kts | 54° |
| 2026-05-05 18:08 | 32.70317 | -16.57937 | 4004 ft | 195 kts | 54° |
| 2026-05-05 18:08 | 32.71124 | -16.56637 | 4000 ft | 195 kts | 53° |
| 2026-05-05 18:08 | 32.71925 | -16.55350 | 3995 ft | 192 kts | 55° |
| 2026-05-05 18:08 | 32.72715 | -16.54081 | 3995 ft | 190 kts | 55° |
| 2026-05-05 18:09 | 32.73500 | -16.52818 | 4003 ft | 190 kts | 56° |
| 2026-05-05 18:09 | 32.74299 | -16.51533 | 4008 ft | 195 kts | 55° |
| 2026-05-05 18:09 | 32.75119 | -16.50215 | 4001 ft | 202 kts | 56° |
| 2026-05-05 18:09 | 32.75952 | -16.48873 | 4002 ft | 206 kts | 55° |
| 2026-05-05 18:10 | 32.76818 | -16.47480 | 3998 ft | 207 kts | 55° |
| 2026-05-05 18:10 | 32.77676 | -16.46100 | 3998 ft | 208 kts | 55° |
| 2026-05-05 18:10 | 32.78523 | -16.44735 | 3998 ft | 208 kts | 55° |
| 2026-05-05 18:10 | 32.79381 | -16.43353 | 4002 ft | 206 kts | 56° |
| 2026-05-05 18:11 | 32.80232 | -16.41982 | 4006 ft | 206 kts | 56° |
| 2026-05-05 18:11 | 32.81087 | -16.40602 | 3992 ft | 207 kts | 56° |
| 2026-05-05 18:11 | 32.81669 | -16.39662 | 3837 ft | 209 kts | 56° |
| 2026-05-05 18:11 | 32.82945 | -16.37982 | 3460 ft | 206 kts | 47° |
| 2026-05-05 18:12 | 32.83639 | -16.37206 | 3065 ft | 199 kts | 46° |
| 2026-05-05 18:12 | 32.84594 | -16.36186 | 2996 ft | 169 kts | 44° |
| 2026-05-05 18:12 | 32.85433 | -16.35374 | 2989 ft | 143 kts | 41° |
| 2026-05-05 18:12 | 32.86207 | -16.34760 | 2992 ft | 130 kts | 34° |
| 2026-05-05 18:13 | 32.87023 | -16.34354 | 2997 ft | 128 kts | 18° |
| 2026-05-05 18:13 | 32.87939 | -16.34286 | 3006 ft | 135 kts | 5° |
| 2026-05-05 18:13 | 32.88900 | -16.34295 | 2999 ft | 141 kts | 7° |
| 2026-05-05 18:13 | 32.89902 | -16.34323 | 3008 ft | 147 kts | 3° |
| 2026-05-05 18:14 | 32.90940 | -16.34359 | 3009 ft | 151 kts | 4° |
| 2026-05-05 18:14 | 32.91948 | -16.34399 | 2968 ft | 136 kts | 5° |
| 2026-05-05 18:14 | 32.92834 | -16.34436 | 2834 ft | 119 kts | 7° |
| 2026-05-05 18:14 | 32.93624 | -16.34467 | 2685 ft | 111 kts | 7° |
| 2026-05-05 18:15 | 32.94399 | -16.34494 | 2538 ft | 111 kts | 6° |
| 2026-05-05 18:15 | 32.95168 | -16.34523 | 2383 ft | 110 kts | 7° |
| 2026-05-05 18:15 | 32.95932 | -16.34552 | 2236 ft | 108 kts | 11° |
| 2026-05-05 18:15 | 32.96677 | -16.34581 | 2096 ft | 107 kts | 8° |
| 2026-05-05 18:16 | 32.97423 | -16.34608 | 1952 ft | 108 kts | 7° |
| 2026-05-05 18:16 | 32.98180 | -16.34637 | 1806 ft | 110 kts | 8° |
| 2026-05-05 18:16 | 32.98953 | -16.34665 | 1652 ft | 113 kts | 7° |
| 2026-05-05 18:16 | 32.99743 | -16.34696 | 1493 ft | 113 kts | 9° |
| 2026-05-05 18:17 | 33.00505 | -16.34729 | 1339 ft | 106 kts | 8° |
| 2026-05-05 18:17 | 33.01237 | -16.34757 | 1200 ft | 105 kts | 6° |
| 2026-05-05 18:17 | 33.01955 | -16.34785 | 1059 ft | 105 kts | 5° |
| 2026-05-05 18:17 | 33.02682 | -16.34813 | 957 ft | 104 kts | 6° |
| 2026-05-05 18:18 | 33.03429 | -16.34885 | 791 ft | 109 kts | 6° |
| 2026-05-05 18:18 | 33.04145 | -16.34897 | 1046 ft | 94 kts | 13° |
| 2026-05-05 18:18 | 33.04819 | -16.34972 | 1282 ft | 106 kts | 357° |
| 2026-05-05 18:18 | 33.05511 | -16.35147 | 1636 ft | 98 kts | 4° |
| 2026-05-05 18:19 | 33.06286 | -16.35278 | 1803 ft | 129 kts | 2° |
| 2026-05-05 18:19 | 33.07266 | -16.35234 | 2096 ft | 149 kts | 15° |
| 2026-05-05 18:19 | 33.08271 | -16.35240 | 2962 ft | 146 kts | 360° |
| 2026-05-05 18:19 | 33.09382 | -16.35316 | 3158 ft | 166 kts | 4° |
| 2026-05-05 18:20 | 33.10578 | -16.35374 | 3240 ft | 178 kts | 6° |
| 2026-05-05 18:20 | 33.11809 | -16.35206 | 3289 ft | 176 kts | 24° |
| 2026-05-05 18:20 | 33.12711 | -16.34246 | 3118 ft | 181 kts | 64° |
| 2026-05-05 18:20 | 33.13083 | -16.32813 | 3055 ft | 184 kts | 82° |
| 2026-05-05 18:21 | 33.13003 | -16.31277 | 3009 ft | 186 kts | 96° |